sensor_id;sensor_type;location;lat;lon;timestamp;P1;durP1;ratioP1;P2;durP2;ratioP2
43429;SDS011;29028;43.234;27.896;2022-10-16T04:02:10;4.25;;;3.03;;
43429;SDS011;29028;43.234;27.896;2022-10-16T04:02:32;4.45;;;3.05;;
43429;SDS011;29028;43.234;27.896;2022-10-16T04:02:52;3.42;;;2.70;;
43429;SDS011;29028;43.234;27.896;2022-10-16T04:03:13;4.13;;;2.90;;
43429;SDS011;29028;43.234;27.896;2022-10-16T04:03:34;4.03;;;2.90;;
43429;SDS011;29028;43.234;27.896;2022-10-16T04:03:55;4.50;;;3.10;;
43429;SDS011;29028;43.234;27.896;2022-10-16T04:04:17;4.15;;;3.17;;
43429;SDS011;29028;43.234;27.896;2022-10-16T04:04:38;3.75;;;3.17;;
43429;SDS011;29028;43.234;27.896;2022-10-16T04:04:59;4.35;;;3.15;;
43429;SDS011;29028;43.234;27.896;2022-10-16T04:05:20;3.90;;;2.78;;
43429;SDS011;29028;43.234;27.896;2022-10-16T04:05:42;3.53;;;2.78;;
43429;SDS011;29028;43.234;27.896;2022-10-16T04:06:03;3.90;;;3.00;;
43429;SDS011;29028;43.234;27.896;2022-10-16T04:06:23;4.00;;;2.93;;
43429;SDS011;29028;43.234;27.896;2022-10-16T04:06:44;4.03;;;2.97;;
43429;SDS011;29028;43.234;27.896;2022-10-16T04:07:05;4.13;;;2.90;;
43429;SDS011;29028;43.234;27.896;2022-10-16T04:07:27;3.67;;;2.85;;
43429;SDS011;29028;43.234;27.896;2022-10-16T04:07:48;3.97;;;3.00;;
43429;SDS011;29028;43.234;27.896;2022-10-16T04:08:09;3.80;;;3.10;;
43429;SDS011;29028;43.234;27.896;2022-10-16T04:08:30;4.28;;;3.20;;
43429;SDS011;29028;43.234;27.896;2022-10-16T04:08:53;4.35;;;3.20;;
43429;SDS011;29028;43.234;27.896;2022-10-16T04:09:15;3.97;;;3.00;;
43429;SDS011;29028;43.234;27.896;2022-10-16T04:09:35;3.63;;;2.83;;
43429;SDS011;29028;43.234;27.896;2022-10-16T04:09:56;4.03;;;3.00;;
43429;SDS011;29028;43.234;27.896;2022-10-16T04:10:18;4.05;;;2.92;;
43429;SDS011;29028;43.234;27.896;2022-10-16T04:10:42;3.83;;;3.10;;
43429;SDS011;29028;43.234;27.896;2022-10-16T04:11:03;3.70;;;3.00;;
43429;SDS011;29028;43.234;27.896;2022-10-16T04:11:24;3.92;;;3.10;;
43429;SDS011;29028;43.234;27.896;2022-10-16T04:11:45;3.78;;;2.90;;
43429;SDS011;29028;43.234;27.896;2022-10-16T04:12:07;3.22;;;2.80;;
43429;SDS011;29028;43.234;27.896;2022-10-16T04:12:28;4.30;;;3.20;;
43429;SDS011;29028;43.234;27.896;2022-10-16T04:12:49;4.07;;;2.90;;
43429;SDS011;29028;43.234;27.896;2022-10-16T04:13:09;4.55;;;2.88;;
43429;SDS011;29028;43.234;27.896;2022-10-16T04:13:31;4.03;;;2.88;;
43429;SDS011;29028;43.234;27.896;2022-10-16T04:13:52;3.60;;;2.85;;
43429;SDS011;29028;43.234;27.896;2022-10-16T04:14:13;3.70;;;3.08;;
43429;SDS011;29028;43.234;27.896;2022-10-16T04:14:34;3.35;;;2.85;;
43429;SDS011;29028;43.234;27.896;2022-10-16T04:14:56;4.70;;;3.00;;
43429;SDS011;29028;43.234;27.896;2022-10-16T04:15:17;4.27;;;2.80;;
43429;SDS011;29028;43.234;27.896;2022-10-16T04:15:38;3.60;;;2.70;;
43429;SDS011;29028;43.234;27.896;2022-10-16T04:15:59;4.10;;;2.92;;
43429;SDS011;29028;43.234;27.896;2022-10-16T04:16:20;3.97;;;3.10;;
43429;SDS011;29028;43.234;27.896;2022-10-16T04:16:41;4.38;;;3.13;;
43429;SDS011;29028;43.234;27.896;2022-10-16T04:17:02;4.60;;;3.10;;
43429;SDS011;29028;43.234;27.896;2022-10-16T04:17:24;4.00;;;2.85;;
43429;SDS011;29028;43.234;27.896;2022-10-16T04:17:46;3.90;;;2.78;;
43429;SDS011;29028;43.234;27.896;2022-10-16T04:18:07;4.18;;;3.00;;
43429;SDS011;29028;43.234;27.896;2022-10-16T04:18:28;5.82;;;3.53;;
43429;SDS011;29028;43.234;27.896;2022-10-16T04:18:49;5.18;;;3.17;;
43429;SDS011;29028;43.234;27.896;2022-10-16T04:19:11;4.70;;;3.20;;
43429;SDS011;29028;43.234;27.896;2022-10-16T04:19:32;4.22;;;3.20;;
43429;SDS011;29028;43.234;27.896;2022-10-16T04:19:52;4.13;;;3.30;;
43429;SDS011;29028;43.234;27.896;2022-10-16T04:20:13;4.57;;;3.40;;
43429;SDS011;29028;43.234;27.896;2022-10-16T04:20:34;4.32;;;3.22;;
43429;SDS011;29028;43.234;27.896;2022-10-16T04:20:56;6.15;;;3.28;;
43429;SDS011;29028;43.234;27.896;2022-10-16T04:21:17;4.40;;;3.10;;
43429;SDS011;29028;43.234;27.896;2022-10-16T04:21:38;3.95;;;3.08;;
43429;SDS011;29028;43.234;27.896;2022-10-16T04:21:58;3.90;;;2.97;;
43429;SDS011;29028;43.234;27.896;2022-10-16T04:22:19;3.73;;;3.20;;
43429;SDS011;29028;43.234;27.896;2022-10-16T04:22:41;5.13;;;3.10;;
43429;SDS011;29028;43.234;27.896;2022-10-16T04:23:02;4.65;;;3.30;;
43429;SDS011;29028;43.234;27.896;2022-10-16T04:23:23;3.63;;;3.17;;
43429;SDS011;29028;43.234;27.896;2022-10-16T04:23:44;5.18;;;3.75;;
43429;SDS011;29028;43.234;27.896;2022-10-16T04:24:06;4.85;;;3.58;;
43429;SDS011;29028;43.234;27.896;2022-10-16T04:24:27;4.18;;;3.00;;
43429;SDS011;29028;43.234;27.896;2022-10-16T04:24:48;4.57;;;2.90;;
43429;SDS011;29028;43.234;27.896;2022-10-16T04:25:08;5.18;;;3.20;;
43429;SDS011;29028;43.234;27.896;2022-10-16T04:25:29;4.60;;;3.17;;
43429;SDS011;29028;43.234;27.896;2022-10-16T04:25:51;4.03;;;3.08;;
43429;SDS011;29028;43.234;27.896;2022-10-16T04:26:12;4.63;;;3.20;;
43429;SDS011;29028;43.234;27.896;2022-10-16T04:26:33;4.47;;;3.20;;
43429;SDS011;29028;43.234;27.896;2022-10-16T04:26:54;4.07;;;3.20;;
43429;SDS011;29028;43.234;27.896;2022-10-16T04:27:15;4.35;;;3.60;;
43429;SDS011;29028;43.234;27.896;2022-10-16T04:27:37;4.72;;;3.60;;
43429;SDS011;29028;43.234;27.896;2022-10-16T04:27:57;4.43;;;3.28;;
43429;SDS011;29028;43.234;27.896;2022-10-16T04:28:18;4.70;;;3.63;;
43429;SDS011;29028;43.234;27.896;2022-10-16T04:28:39;4.32;;;3.40;;
43429;SDS011;29028;43.234;27.896;2022-10-16T04:29:01;4.75;;;3.17;;
43429;SDS011;29028;43.234;27.896;2022-10-16T04:29:22;4.82;;;3.38;;
43429;SDS011;29028;43.234;27.896;2022-10-16T04:29:43;4.67;;;3.27;;
43429;SDS011;29028;43.234;27.896;2022-10-16T04:30:04;5.77;;;3.50;;
43429;SDS011;29028;43.234;27.896;2022-10-16T04:30:25;6.03;;;3.95;;
43429;SDS011;29028;43.234;27.896;2022-10-16T04:30:47;4.60;;;3.70;;
43429;SDS011;29028;43.234;27.896;2022-10-16T04:31:08;4.68;;;3.67;;
43429;SDS011;29028;43.234;27.896;2022-10-16T04:31:29;3.92;;;3.22;;
43429;SDS011;29028;43.234;27.896;2022-10-16T04:31:50;4.80;;;3.53;;
43429;SDS011;29028;43.234;27.896;2022-10-16T04:32:12;4.95;;;3.58;;
43429;SDS011;29028;43.234;27.896;2022-10-16T04:32:34;4.57;;;3.33;;
43429;SDS011;29028;43.234;27.896;2022-10-16T04:32:54;4.35;;;3.50;;
43429;SDS011;29028;43.234;27.896;2022-10-16T04:33:15;4.20;;;3.60;;
43429;SDS011;29028;43.234;27.896;2022-10-16T04:33:37;4.20;;;3.63;;
43429;SDS011;29028;43.234;27.896;2022-10-16T04:33:58;4.45;;;3.50;;
43429;SDS011;29028;43.234;27.896;2022-10-16T04:34:19;5.60;;;3.42;;
43429;SDS011;29028;43.234;27.896;2022-10-16T04:34:40;5.10;;;3.70;;
43429;SDS011;29028;43.234;27.896;2022-10-16T04:35:02;4.63;;;3.70;;
43429;SDS011;29028;43.234;27.896;2022-10-16T04:35:23;5.22;;;3.60;;
43429;SDS011;29028;43.234;27.896;2022-10-16T04:35:44;4.93;;;3.60;;
43429;SDS011;29028;43.234;27.896;2022-10-16T04:36:05;4.43;;;3.53;;
43429;SDS011;29028;43.234;27.896;2022-10-16T04:36:26;4.45;;;3.28;;
43429;SDS011;29028;43.234;27.896;2022-10-16T04:36:48;4.82;;;3.42;;
43429;SDS011;29028;43.234;27.896;2022-10-16T04:37:09;4.63;;;3.35;;
43429;SDS011;29028;43.234;27.896;2022-10-16T04:37:30;5.83;;;3.63;;
43429;SDS011;29028;43.234;27.896;2022-10-16T04:37:51;5.83;;;4.30;;
43429;SDS011;29028;43.234;27.896;2022-10-16T04:38:13;5.20;;;3.63;;
43429;SDS011;29028;43.234;27.896;2022-10-16T04:38:34;5.47;;;3.67;;
43429;SDS011;29028;43.234;27.896;2022-10-16T04:38:54;5.25;;;3.90;;
43429;SDS011;29028;43.234;27.896;2022-10-16T04:39:16;4.63;;;3.50;;
43429;SDS011;29028;43.234;27.896;2022-10-16T04:39:38;4.55;;;3.50;;
43429;SDS011;29028;43.234;27.896;2022-10-16T04:39:59;5.22;;;3.80;;
43429;SDS011;29028;43.234;27.896;2022-10-16T04:40:20;5.55;;;3.75;;
43429;SDS011;29028;43.234;27.896;2022-10-16T04:40:41;5.13;;;3.50;;
43429;SDS011;29028;43.234;27.896;2022-10-16T04:41:02;4.93;;;3.65;;
43429;SDS011;29028;43.234;27.896;2022-10-16T04:41:24;4.68;;;3.30;;
43429;SDS011;29028;43.234;27.896;2022-10-16T04:41:45;5.03;;;3.22;;
43429;SDS011;29028;43.234;27.896;2022-10-16T04:42:06;5.55;;;3.55;;
43429;SDS011;29028;43.234;27.896;2022-10-16T04:42:27;5.05;;;3.40;;
43429;SDS011;29028;43.234;27.896;2022-10-16T04:42:48;4.00;;;3.30;;
43429;SDS011;29028;43.234;27.896;2022-10-16T04:43:09;4.35;;;3.30;;
43429;SDS011;29028;43.234;27.896;2022-10-16T04:43:30;4.63;;;3.22;;
43429;SDS011;29028;43.234;27.896;2022-10-16T04:43:51;4.68;;;3.35;;
43429;SDS011;29028;43.234;27.896;2022-10-16T04:44:12;4.22;;;3.53;;
43429;SDS011;29028;43.234;27.896;2022-10-16T04:44:34;4.30;;;3.50;;
43429;SDS011;29028;43.234;27.896;2022-10-16T04:44:55;4.38;;;3.65;;
43429;SDS011;29028;43.234;27.896;2022-10-16T04:45:16;4.60;;;4.00;;
43429;SDS011;29028;43.234;27.896;2022-10-16T04:45:37;4.78;;;3.58;;
43429;SDS011;29028;43.234;27.896;2022-10-16T04:45:59;5.22;;;3.65;;
43429;SDS011;29028;43.234;27.896;2022-10-16T04:46:20;4.88;;;3.50;;
43429;SDS011;29028;43.234;27.896;2022-10-16T04:46:40;4.72;;;3.60;;
43429;SDS011;29028;43.234;27.896;2022-10-16T04:47:01;5.05;;;3.70;;
43429;SDS011;29028;43.234;27.896;2022-10-16T04:47:24;5.13;;;3.70;;
43429;SDS011;29028;43.234;27.896;2022-10-16T04:47:46;5.23;;;3.53;;
43429;SDS011;29028;43.234;27.896;2022-10-16T04:48:07;4.72;;;3.67;;
43429;SDS011;29028;43.234;27.896;2022-10-16T04:48:28;5.27;;;3.40;;
43429;SDS011;29028;43.234;27.896;2022-10-16T04:48:49;5.60;;;3.83;;
43429;SDS011;29028;43.234;27.896;2022-10-16T04:49:11;6.03;;;3.72;;
43429;SDS011;29028;43.234;27.896;2022-10-16T04:49:31;4.93;;;3.65;;
43429;SDS011;29028;43.234;27.896;2022-10-16T04:49:52;5.38;;;4.13;;
43429;SDS011;29028;43.234;27.896;2022-10-16T04:50:13;5.30;;;3.92;;
43429;SDS011;29028;43.234;27.896;2022-10-16T04:50:35;4.72;;;3.60;;
43429;SDS011;29028;43.234;27.896;2022-10-16T04:50:56;5.93;;;4.03;;
43429;SDS011;29028;43.234;27.896;2022-10-16T04:51:17;5.57;;;3.78;;
43429;SDS011;29028;43.234;27.896;2022-10-16T04:51:38;5.28;;;3.92;;
43429;SDS011;29028;43.234;27.896;2022-10-16T04:51:59;5.75;;;4.18;;
43429;SDS011;29028;43.234;27.896;2022-10-16T04:52:21;5.50;;;4.32;;
43429;SDS011;29028;43.234;27.896;2022-10-16T04:52:44;5.22;;;4.05;;
43429;SDS011;29028;43.234;27.896;2022-10-16T04:53:05;5.05;;;3.95;;
43429;SDS011;29028;43.234;27.896;2022-10-16T04:53:27;4.88;;;3.90;;
43429;SDS011;29028;43.234;27.896;2022-10-16T04:53:49;4.57;;;3.63;;
43429;SDS011;29028;43.234;27.896;2022-10-16T04:54:09;4.82;;;3.63;;
43429;SDS011;29028;43.234;27.896;2022-10-16T04:54:30;4.85;;;3.80;;
43429;SDS011;29028;43.234;27.896;2022-10-16T04:54:51;5.95;;;4.07;;
43429;SDS011;29028;43.234;27.896;2022-10-16T04:55:12;5.88;;;4.03;;
43429;SDS011;29028;43.234;27.896;2022-10-16T04:55:34;6.03;;;3.97;;
43429;SDS011;29028;43.234;27.896;2022-10-16T04:55:55;5.63;;;3.80;;
43429;SDS011;29028;43.234;27.896;2022-10-16T04:56:17;5.55;;;3.70;;
43429;SDS011;29028;43.234;27.896;2022-10-16T04:56:38;5.60;;;3.85;;
43429;SDS011;29028;43.234;27.896;2022-10-16T04:57:06;5.07;;;4.00;;
43429;SDS011;29028;43.234;27.896;2022-10-16T04:57:28;5.47;;;4.10;;
43429;SDS011;29028;43.234;27.896;2022-10-16T04:57:49;5.80;;;3.97;;
43429;SDS011;29028;43.234;27.896;2022-10-16T04:58:10;5.77;;;4.10;;
43429;SDS011;29028;43.234;27.896;2022-10-16T04:58:31;4.50;;;3.60;;
43429;SDS011;29028;43.234;27.896;2022-10-16T04:58:53;4.45;;;3.75;;
43429;SDS011;29028;43.234;27.896;2022-10-16T04:59:14;5.60;;;3.92;;
43429;SDS011;29028;43.234;27.896;2022-10-16T04:59:35;6.22;;;3.90;;
43429;SDS011;29028;43.234;27.896;2022-10-16T04:59:56;6.07;;;3.97;;
43429;SDS011;29028;43.234;27.896;2022-10-16T05:00:17;4.95;;;3.90;;
43429;SDS011;29028;43.234;27.896;2022-10-16T05:00:39;5.05;;;3.97;;
43429;SDS011;29028;43.234;27.896;2022-10-16T05:01:00;5.35;;;4.05;;
43429;SDS011;29028;43.234;27.896;2022-10-16T05:01:21;5.83;;;4.10;;
43429;SDS011;29028;43.234;27.896;2022-10-16T05:01:42;4.88;;;4.00;;
43429;SDS011;29028;43.234;27.896;2022-10-16T05:02:04;4.95;;;4.10;;
43429;SDS011;29028;43.234;27.896;2022-10-16T05:02:25;5.25;;;4.00;;
43429;SDS011;29028;43.234;27.896;2022-10-16T05:02:47;4.72;;;3.90;;
43429;SDS011;29028;43.234;27.896;2022-10-16T05:03:09;5.22;;;3.90;;
43429;SDS011;29028;43.234;27.896;2022-10-16T05:03:31;5.57;;;3.80;;
43429;SDS011;29028;43.234;27.896;2022-10-16T05:03:52;5.25;;;3.67;;
43429;SDS011;29028;43.234;27.896;2022-10-16T05:04:13;4.97;;;4.07;;
43429;SDS011;29028;43.234;27.896;2022-10-16T05:04:34;5.43;;;4.38;;
43429;SDS011;29028;43.234;27.896;2022-10-16T05:04:55;6.28;;;4.25;;
43429;SDS011;29028;43.234;27.896;2022-10-16T05:05:17;6.20;;;4.30;;
43429;SDS011;29028;43.234;27.896;2022-10-16T05:05:42;5.63;;;4.10;;
43429;SDS011;29028;43.234;27.896;2022-10-16T05:06:04;4.45;;;3.65;;
43429;SDS011;29028;43.234;27.896;2022-10-16T05:06:26;5.85;;;3.97;;
43429;SDS011;29028;43.234;27.896;2022-10-16T05:06:48;4.88;;;3.90;;
43429;SDS011;29028;43.234;27.896;2022-10-16T05:07:08;4.70;;;3.70;;
43429;SDS011;29028;43.234;27.896;2022-10-16T05:07:29;5.05;;;3.90;;
43429;SDS011;29028;43.234;27.896;2022-10-16T05:07:51;4.50;;;3.50;;
43429;SDS011;29028;43.234;27.896;2022-10-16T05:08:13;5.60;;;3.80;;
43429;SDS011;29028;43.234;27.896;2022-10-16T05:08:34;5.80;;;3.80;;
43429;SDS011;29028;43.234;27.896;2022-10-16T05:08:55;4.80;;;3.83;;
43429;SDS011;29028;43.234;27.896;2022-10-16T05:09:16;5.32;;;4.07;;
43429;SDS011;29028;43.234;27.896;2022-10-16T05:09:38;4.65;;;3.55;;
43429;SDS011;29028;43.234;27.896;2022-10-16T05:09:58;4.50;;;3.50;;
43429;SDS011;29028;43.234;27.896;2022-10-16T05:10:19;4.63;;;3.53;;
43429;SDS011;29028;43.234;27.896;2022-10-16T05:10:40;5.05;;;3.80;;
43429;SDS011;29028;43.234;27.896;2022-10-16T05:11:03;5.95;;;3.63;;
43429;SDS011;29028;43.234;27.896;2022-10-16T05:11:24;5.00;;;3.65;;
43429;SDS011;29028;43.234;27.896;2022-10-16T05:11:45;6.00;;;3.83;;
43429;SDS011;29028;43.234;27.896;2022-10-16T05:12:06;4.95;;;3.50;;
43429;SDS011;29028;43.234;27.896;2022-10-16T05:12:28;5.03;;;3.60;;
43429;SDS011;29028;43.234;27.896;2022-10-16T05:12:49;5.35;;;3.97;;
43429;SDS011;29028;43.234;27.896;2022-10-16T05:13:11;4.55;;;3.60;;
43429;SDS011;29028;43.234;27.896;2022-10-16T05:13:32;4.85;;;3.67;;
43429;SDS011;29028;43.234;27.896;2022-10-16T05:13:54;5.18;;;3.55;;
43429;SDS011;29028;43.234;27.896;2022-10-16T05:14:15;4.75;;;3.55;;
43429;SDS011;29028;43.234;27.896;2022-10-16T05:14:36;5.13;;;3.70;;
43429;SDS011;29028;43.234;27.896;2022-10-16T05:14:56;4.95;;;3.78;;
43429;SDS011;29028;43.234;27.896;2022-10-16T05:15:18;4.50;;;3.63;;
43429;SDS011;29028;43.234;27.896;2022-10-16T05:15:40;4.40;;;3.65;;
43429;SDS011;29028;43.234;27.896;2022-10-16T05:16:02;4.40;;;3.47;;
43429;SDS011;29028;43.234;27.896;2022-10-16T05:16:22;7.22;;;3.75;;
43429;SDS011;29028;43.234;27.896;2022-10-16T05:16:43;7.13;;;3.70;;
43429;SDS011;29028;43.234;27.896;2022-10-16T05:17:05;4.50;;;3.45;;
43429;SDS011;29028;43.234;27.896;2022-10-16T05:17:26;5.55;;;3.47;;
43429;SDS011;29028;43.234;27.896;2022-10-16T05:17:51;4.05;;;3.30;;
43429;SDS011;29028;43.234;27.896;2022-10-16T05:18:12;3.90;;;3.22;;
43429;SDS011;29028;43.234;27.896;2022-10-16T05:18:34;4.05;;;3.38;;
43429;SDS011;29028;43.234;27.896;2022-10-16T05:18:55;5.47;;;3.47;;
43429;SDS011;29028;43.234;27.896;2022-10-16T05:19:17;5.05;;;3.35;;
43429;SDS011;29028;43.234;27.896;2022-10-16T05:19:37;3.75;;;3.15;;
43429;SDS011;29028;43.234;27.896;2022-10-16T05:19:58;4.40;;;3.20;;
43429;SDS011;29028;43.234;27.896;2022-10-16T05:20:20;4.22;;;3.10;;
43429;SDS011;29028;43.234;27.896;2022-10-16T05:20:42;4.57;;;3.15;;
43429;SDS011;29028;43.234;27.896;2022-10-16T05:21:03;4.65;;;3.15;;
43429;SDS011;29028;43.234;27.896;2022-10-16T05:21:24;4.28;;;3.35;;
43429;SDS011;29028;43.234;27.896;2022-10-16T05:21:46;4.90;;;3.30;;
43429;SDS011;29028;43.234;27.896;2022-10-16T05:22:07;3.90;;;2.90;;
43429;SDS011;29028;43.234;27.896;2022-10-16T05:22:28;4.03;;;2.92;;
43429;SDS011;29028;43.234;27.896;2022-10-16T05:22:48;4.50;;;3.00;;
43429;SDS011;29028;43.234;27.896;2022-10-16T05:23:11;3.97;;;3.00;;
43429;SDS011;29028;43.234;27.896;2022-10-16T05:23:32;3.85;;;2.97;;
43429;SDS011;29028;43.234;27.896;2022-10-16T05:23:53;4.15;;;2.90;;
43429;SDS011;29028;43.234;27.896;2022-10-16T05:24:14;4.07;;;3.13;;
43429;SDS011;29028;43.234;27.896;2022-10-16T05:24:35;4.38;;;3.30;;
43429;SDS011;29028;43.234;27.896;2022-10-16T05:24:56;4.30;;;3.17;;
43429;SDS011;29028;43.234;27.896;2022-10-16T05:25:17;4.45;;;2.90;;
43429;SDS011;29028;43.234;27.896;2022-10-16T05:25:38;4.25;;;3.00;;
43429;SDS011;29028;43.234;27.896;2022-10-16T05:25:59;4.03;;;3.07;;
43429;SDS011;29028;43.234;27.896;2022-10-16T05:26:21;4.35;;;3.25;;
43429;SDS011;29028;43.234;27.896;2022-10-16T05:26:42;4.20;;;2.97;;
43429;SDS011;29028;43.234;27.896;2022-10-16T05:27:03;3.97;;;2.90;;
43429;SDS011;29028;43.234;27.896;2022-10-16T05:27:24;3.70;;;2.70;;
43429;SDS011;29028;43.234;27.896;2022-10-16T05:27:46;3.65;;;2.70;;
43429;SDS011;29028;43.234;27.896;2022-10-16T05:28:08;4.40;;;3.30;;
43429;SDS011;29028;43.234;27.896;2022-10-16T05:28:29;4.00;;;2.95;;
43429;SDS011;29028;43.234;27.896;2022-10-16T05:28:50;4.32;;;3.30;;
43429;SDS011;29028;43.234;27.896;2022-10-16T05:29:12;3.85;;;3.03;;
43429;SDS011;29028;43.234;27.896;2022-10-16T05:29:34;4.25;;;2.88;;
43429;SDS011;29028;43.234;27.896;2022-10-16T05:29:55;3.80;;;2.60;;
43429;SDS011;29028;43.234;27.896;2022-10-16T05:30:16;3.20;;;2.40;;
43429;SDS011;29028;43.234;27.896;2022-10-16T05:30:37;3.33;;;2.70;;
43429;SDS011;29028;43.234;27.896;2022-10-16T05:31:03;3.65;;;2.75;;
43429;SDS011;29028;43.234;27.896;2022-10-16T05:31:24;3.47;;;2.55;;
43429;SDS011;29028;43.234;27.896;2022-10-16T05:31:45;4.18;;;2.75;;
43429;SDS011;29028;43.234;27.896;2022-10-16T05:32:06;4.00;;;2.63;;
43429;SDS011;29028;43.234;27.896;2022-10-16T05:32:28;3.63;;;2.60;;
43429;SDS011;29028;43.234;27.896;2022-10-16T05:32:51;3.67;;;2.72;;
43429;SDS011;29028;43.234;27.896;2022-10-16T05:33:12;4.13;;;2.72;;
43429;SDS011;29028;43.234;27.896;2022-10-16T05:33:33;3.60;;;2.67;;
43429;SDS011;29028;43.234;27.896;2022-10-16T05:33:57;3.38;;;2.50;;
43429;SDS011;29028;43.234;27.896;2022-10-16T05:34:19;4.47;;;2.70;;
43429;SDS011;29028;43.234;27.896;2022-10-16T05:34:41;3.30;;;2.42;;
43429;SDS011;29028;43.234;27.896;2022-10-16T05:35:02;3.53;;;2.60;;
43429;SDS011;29028;43.234;27.896;2022-10-16T05:35:23;3.78;;;2.70;;
43429;SDS011;29028;43.234;27.896;2022-10-16T05:35:44;3.55;;;2.50;;
43429;SDS011;29028;43.234;27.896;2022-10-16T05:36:06;4.18;;;2.60;;
43429;SDS011;29028;43.234;27.896;2022-10-16T05:36:28;4.00;;;2.60;;
43429;SDS011;29028;43.234;27.896;2022-10-16T05:36:49;3.63;;;2.40;;
43429;SDS011;29028;43.234;27.896;2022-10-16T05:37:10;3.28;;;2.50;;
43429;SDS011;29028;43.234;27.896;2022-10-16T05:37:32;4.20;;;2.67;;
43429;SDS011;29028;43.234;27.896;2022-10-16T05:37:53;3.95;;;2.80;;
43429;SDS011;29028;43.234;27.896;2022-10-16T05:38:14;5.03;;;3.10;;
43429;SDS011;29028;43.234;27.896;2022-10-16T05:38:35;4.72;;;3.28;;
43429;SDS011;29028;43.234;27.896;2022-10-16T05:38:58;4.68;;;3.30;;
43429;SDS011;29028;43.234;27.896;2022-10-16T05:39:19;4.00;;;3.25;;
43429;SDS011;29028;43.234;27.896;2022-10-16T05:39:39;4.10;;;3.38;;
43429;SDS011;29028;43.234;27.896;2022-10-16T05:40:00;4.97;;;3.60;;
43429;SDS011;29028;43.234;27.896;2022-10-16T05:40:22;5.93;;;4.57;;
43429;SDS011;29028;43.234;27.896;2022-10-16T05:40:50;5.03;;;4.07;;
43429;SDS011;29028;43.234;27.896;2022-10-16T05:41:11;5.03;;;3.60;;
43429;SDS011;29028;43.234;27.896;2022-10-16T05:41:33;4.25;;;3.60;;
43429;SDS011;29028;43.234;27.896;2022-10-16T05:41:53;4.38;;;3.53;;
43429;SDS011;29028;43.234;27.896;2022-10-16T05:42:14;4.25;;;3.40;;
43429;SDS011;29028;43.234;27.896;2022-10-16T05:42:35;4.70;;;3.42;;
43429;SDS011;29028;43.234;27.896;2022-10-16T05:42:57;6.85;;;3.28;;
43429;SDS011;29028;43.234;27.896;2022-10-16T05:43:18;6.57;;;3.27;;
43429;SDS011;29028;43.234;27.896;2022-10-16T05:43:39;4.10;;;3.15;;
43429;SDS011;29028;43.234;27.896;2022-10-16T05:44:00;3.97;;;3.27;;
43429;SDS011;29028;43.234;27.896;2022-10-16T05:44:23;4.40;;;3.20;;
43429;SDS011;29028;43.234;27.896;2022-10-16T05:44:45;5.05;;;3.47;;
43429;SDS011;29028;43.234;27.896;2022-10-16T05:45:06;4.70;;;3.30;;
43429;SDS011;29028;43.234;27.896;2022-10-16T05:45:30;4.68;;;3.42;;
43429;SDS011;29028;43.234;27.896;2022-10-16T05:45:54;4.88;;;3.50;;
43429;SDS011;29028;43.234;27.896;2022-10-16T05:46:17;4.40;;;3.42;;
43429;SDS011;29028;43.234;27.896;2022-10-16T05:46:39;4.68;;;3.22;;
43429;SDS011;29028;43.234;27.896;2022-10-16T05:46:59;4.57;;;3.15;;
43429;SDS011;29028;43.234;27.896;2022-10-16T05:47:20;4.18;;;3.10;;
43429;SDS011;29028;43.234;27.896;2022-10-16T05:47:42;4.32;;;3.13;;
43429;SDS011;29028;43.234;27.896;2022-10-16T05:48:04;4.07;;;3.20;;
43429;SDS011;29028;43.234;27.896;2022-10-16T05:48:25;3.88;;;3.00;;
43429;SDS011;29028;43.234;27.896;2022-10-16T05:48:46;4.97;;;3.00;;
43429;SDS011;29028;43.234;27.896;2022-10-16T05:49:07;4.10;;;3.10;;
43429;SDS011;29028;43.234;27.896;2022-10-16T05:49:29;4.63;;;3.20;;
43429;SDS011;29028;43.234;27.896;2022-10-16T05:49:50;5.38;;;3.15;;
43429;SDS011;29028;43.234;27.896;2022-10-16T05:50:11;4.07;;;3.35;;
43429;SDS011;29028;43.234;27.896;2022-10-16T05:50:32;4.82;;;3.45;;
43429;SDS011;29028;43.234;27.896;2022-10-16T05:50:57;4.18;;;2.97;;
43429;SDS011;29028;43.234;27.896;2022-10-16T05:51:19;4.40;;;2.75;;
43429;SDS011;29028;43.234;27.896;2022-10-16T05:51:40;4.28;;;3.05;;
43429;SDS011;29028;43.234;27.896;2022-10-16T05:52:01;3.95;;;3.15;;
43429;SDS011;29028;43.234;27.896;2022-10-16T05:52:23;4.38;;;3.33;;
43429;SDS011;29028;43.234;27.896;2022-10-16T05:52:44;4.43;;;3.22;;
43429;SDS011;29028;43.234;27.896;2022-10-16T05:53:05;4.97;;;3.27;;
43429;SDS011;29028;43.234;27.896;2022-10-16T05:53:26;4.32;;;3.53;;
43429;SDS011;29028;43.234;27.896;2022-10-16T05:53:48;4.22;;;3.38;;
43429;SDS011;29028;43.234;27.896;2022-10-16T05:54:10;4.18;;;3.55;;
43429;SDS011;29028;43.234;27.896;2022-10-16T05:54:31;4.57;;;3.60;;
43429;SDS011;29028;43.234;27.896;2022-10-16T05:54:51;4.88;;;3.80;;
43429;SDS011;29028;43.234;27.896;2022-10-16T05:55:12;5.07;;;3.78;;
43429;SDS011;29028;43.234;27.896;2022-10-16T05:55:35;4.68;;;3.30;;
43429;SDS011;29028;43.234;27.896;2022-10-16T05:55:56;4.80;;;3.40;;
43429;SDS011;29028;43.234;27.896;2022-10-16T05:56:18;4.82;;;3.40;;
43429;SDS011;29028;43.234;27.896;2022-10-16T05:56:39;3.78;;;3.33;;
43429;SDS011;29028;43.234;27.896;2022-10-16T05:56:59;3.50;;;3.10;;
43429;SDS011;29028;43.234;27.896;2022-10-16T05:57:22;4.00;;;3.20;;
43429;SDS011;29028;43.234;27.896;2022-10-16T05:57:43;4.13;;;3.25;;
43429;SDS011;29028;43.234;27.896;2022-10-16T05:58:04;4.88;;;3.47;;
43429;SDS011;29028;43.234;27.896;2022-10-16T05:58:25;4.43;;;3.33;;
43429;SDS011;29028;43.234;27.896;2022-10-16T05:58:48;5.38;;;3.63;;
43429;SDS011;29028;43.234;27.896;2022-10-16T05:59:10;4.68;;;3.38;;
43429;SDS011;29028;43.234;27.896;2022-10-16T05:59:31;4.70;;;3.55;;
43429;SDS011;29028;43.234;27.896;2022-10-16T05:59:52;5.07;;;3.50;;
43429;SDS011;29028;43.234;27.896;2022-10-16T06:00:12;4.18;;;3.33;;
43429;SDS011;29028;43.234;27.896;2022-10-16T06:00:35;4.13;;;3.13;;
43429;SDS011;29028;43.234;27.896;2022-10-16T06:00:56;4.75;;;3.13;;
43429;SDS011;29028;43.234;27.896;2022-10-16T06:01:18;4.78;;;3.42;;
43429;SDS011;29028;43.234;27.896;2022-10-16T06:01:40;4.15;;;3.58;;
43429;SDS011;29028;43.234;27.896;2022-10-16T06:02:02;4.45;;;3.47;;
43429;SDS011;29028;43.234;27.896;2022-10-16T06:02:23;4.20;;;3.40;;
43429;SDS011;29028;43.234;27.896;2022-10-16T06:02:44;4.05;;;3.28;;
43429;SDS011;29028;43.234;27.896;2022-10-16T06:03:06;4.18;;;3.40;;
43429;SDS011;29028;43.234;27.896;2022-10-16T06:03:28;4.30;;;3.50;;
43429;SDS011;29028;43.234;27.896;2022-10-16T06:03:49;4.45;;;3.40;;
43429;SDS011;29028;43.234;27.896;2022-10-16T06:04:10;3.95;;;3.22;;
43429;SDS011;29028;43.234;27.896;2022-10-16T06:04:31;3.85;;;3.03;;
43429;SDS011;29028;43.234;27.896;2022-10-16T06:04:53;4.18;;;3.40;;
43429;SDS011;29028;43.234;27.896;2022-10-16T06:05:14;4.60;;;3.70;;
43429;SDS011;29028;43.234;27.896;2022-10-16T06:05:34;4.75;;;3.65;;
43429;SDS011;29028;43.234;27.896;2022-10-16T06:05:55;4.47;;;3.60;;
43429;SDS011;29028;43.234;27.896;2022-10-16T06:06:18;4.00;;;3.28;;
43429;SDS011;29028;43.234;27.896;2022-10-16T06:06:41;4.03;;;3.30;;
43429;SDS011;29028;43.234;27.896;2022-10-16T06:07:02;4.32;;;3.30;;
43429;SDS011;29028;43.234;27.896;2022-10-16T06:07:24;4.10;;;3.40;;
43429;SDS011;29028;43.234;27.896;2022-10-16T06:07:46;4.35;;;3.42;;
43429;SDS011;29028;43.234;27.896;2022-10-16T06:08:06;4.57;;;2.97;;
43429;SDS011;29028;43.234;27.896;2022-10-16T06:08:27;4.50;;;3.30;;
43429;SDS011;29028;43.234;27.896;2022-10-16T06:08:48;4.35;;;3.38;;